Time;durP1;ratioP1;P1;durP2;ratioP2;P2;SDS_P1;SDS_P2;PMS_P1;PMS_P2;Temp;Humidity;BMP_temperature;BMP_pressure;BME280_temperature;BME280_humidity;BME280_pressure;Samples;Min_cycle;Max_cycle;Signal;HPM_P1;HPM_P2
2022/01/10 00:00:38;;;;;;;29.27;8.88;;;1.80;99.90;;;;;;4944880;28;20150;-93
2022/01/10 00:03:05;;;;;;;35.65;9.38;;;1.70;99.90;;;;;;4960182;28;20130;-92
2022/01/10 00:05:31;;;;;;;34.83;8.73;;;1.80;99.90;;;;;;4945136;28;20058;-92
2022/01/10 00:07:56;;;;;;;38.78;9.57;;;1.70;99.90;;;;;;4944926;28;20057;-92
2022/01/10 00:10:22;;;;;;;45.80;10.40;;;1.60;99.90;;;;;;4944052;28;20473;-94
2022/01/10 00:12:48;;;;;;;37.60;9.43;;;1.60;99.90;;;;;;4944750;28;20428;-92
2022/01/10 00:15:16;;;;;;;28.98;10.18;;;1.60;99.90;;;;;;4944519;28;20059;-94
2022/01/10 00:17:45;;;;;;;39.25;8.60;;;1.50;99.90;;;;;;4944443;28;20078;-92
2022/01/10 00:20:14;;;;;;;40.35;10.27;;;1.60;99.90;;;;;;4945029;28;20055;-93
2022/01/10 00:22:45;;;;;;;47.00;11.25;;;1.40;99.90;;;;;;4944905;28;20058;-93
2022/01/10 00:25:12;;;;;;;32.50;9.50;;;1.80;99.90;;;;;;4944705;28;20051;-93
2022/01/10 00:27:37;;;;;;;38.85;10.40;;;1.40;99.90;;;;;;4960775;28;20066;-92
2022/01/10 00:30:04;;;;;;;28.95;9.70;;;1.30;99.90;;;;;;4960585;28;20054;-92
2022/01/10 00:32:29;;;;;;;27.38;8.95;;;1.40;99.90;;;;;;4944021;28;20054;-92
2022/01/10 00:38:36;;;;;;;36.03;10.03;;;1.30;99.90;;;;;;4976845;28;20065;-93
2022/01/10 00:41:02;;;;;;;46.88;10.55;;;1.20;99.90;;;;;;4944453;28;20114;-92
2022/01/10 00:43:33;;;;;;;40.10;10.95;;;1.10;99.90;;;;;;4944460;28;20146;-93
2022/01/10 00:46:00;;;;;;;36.40;10.55;;;1.10;99.90;;;;;;4944355;28;20073;-92
2022/01/10 00:52:34;;;;;;;33.20;10.82;;;1.10;99.90;;;;;;4977173;28;20045;-93
2022/01/10 00:54:59;;;;;;;36.40;10.02;;;1.10;99.90;;;;;;4960333;28;20150;-93
2022/01/10 00:57:25;;;;;;;54.90;11.07;;;1.10;99.90;;;;;;4943812;28;20050;-93
2022/01/10 00:59:51;;;;;;;30.88;10.20;;;1.10;99.90;;;;;;4943936;28;20059;-93
2022/01/10 01:02:17;;;;;;;44.53;11.48;;;1.50;99.90;;;;;;4944535;28;20117;-92
2022/01/10 01:04:42;;;;;;;40.72;11.45;;;1.30;99.90;;;;;;4943946;28;20137;-93
2022/01/10 01:07:08;;;;;;;51.42;11.55;;;1.00;99.90;;;;;;4944141;28;20094;-94
2022/01/10 01:09:34;;;;;;;40.13;11.50;;;0.90;99.90;;;;;;4943450;28;20066;-93
2022/01/10 01:26:23;;;;;;;52.35;12.43;;;0.50;99.90;;;;;;4901514;29;20060;-92
2022/01/10 01:28:58;;;;;;;40.13;11.23;;;0.40;99.90;;;;;;4901945;29;20059;-92
2022/01/10 01:31:24;;;;;;;44.83;11.85;;;0.50;99.90;;;;;;4901818;29;20067;-92
2022/01/10 01:33:50;;;;;;;38.40;11.00;;;0.30;99.90;;;;;;4901495;29;20056;-93
2022/01/10 01:36:21;;;;;;;35.97;10.73;;;0.10;99.90;;;;;;4901187;29;20056;-93
2022/01/10 01:38:47;;;;;;;39.03;10.60;;;0.20;99.90;;;;;;4901863;29;20052;-93
2022/01/10 01:43:47;;;;;;;38.42;10.48;;;0.20;99.90;;;;;;4901317;29;20142;-93
2022/01/10 01:46:14;;;;;;;35.05;10.43;;;0.20;99.90;;;;;;4900848;29;20078;-93
2022/01/10 01:53:21;;;;;;;45.95;11.07;;;-0.10;99.90;;;;;;4920774;28;20126;-93
2022/01/10 01:55:47;;;;;;;53.72;13.38;;;-0.10;99.90;;;;;;4944022;28;20058;-92
2022/01/10 01:58:12;;;;;;;57.00;12.77;;;-0.20;99.90;;;;;;4943845;28;20374;-93
2022/01/10 02:00:38;;;;;;;67.93;13.45;;;0.00;99.90;;;;;;4943471;28;20050;-95
2022/01/10 02:03:10;;;;;;;40.42;11.13;;;-0.20;99.90;;;;;;4943250;28;20511;-93
2022/01/10 02:05:37;;;;;;;40.08;11.60;;;-0.10;99.90;;;;;;4959379;28;20055;-92
2022/01/10 02:08:03;;;;;;;37.83;11.45;;;-0.20;99.90;;;;;;4942992;28;20051;-93
2022/01/10 02:31:24;;;;;;;34.83;11.82;;;0.30;99.90;;;;;;5012959;28;20110;-94
2022/01/10 02:37:35;;;;;;;44.20;13.00;;;0.30;99.90;;;;;;5014227;28;20077;-94
2022/01/10 02:40:06;;;;;;;47.05;13.30;;;0.20;99.90;;;;;;4983408;28;20057;-93
2022/01/10 02:42:32;;;;;;;54.72;14.25;;;0.20;99.90;;;;;;4985815;28;20054;-93
2022/01/10 02:44:58;;;;;;;45.50;13.57;;;0.20;99.90;;;;;;4985290;28;20148;-94
2022/01/10 02:47:27;;;;;;;54.40;14.20;;;0.20;99.90;;;;;;4985595;28;20149;-93
2022/01/10 02:49:54;;;;;;;45.05;13.95;;;0.10;99.90;;;;;;4985572;28;20446;-93
2022/01/10 02:52:20;;;;;;;47.60;13.30;;;0.10;99.90;;;;;;4984847;28;20050;-93
2022/01/10 02:54:45;;;;;;;38.35;12.05;;;0.10;99.90;;;;;;4985535;28;20107;-94
2022/01/10 02:57:11;;;;;;;49.10;13.13;;;0.10;99.90;;;;;;4985438;28;20049;-93
2022/01/10 02:59:39;;;;;;;42.85;12.90;;;0.60;99.90;;;;;;4985403;28;20057;-94
2022/01/10 03:02:07;;;;;;;54.67;12.88;;;0.10;99.90;;;;;;4984815;28;20056;-93
2022/01/10 03:05:11;;;;;;;44.92;13.52;;;0.20;99.90;;;;;;4985008;28;20062;-94
2022/01/10 03:07:37;;;;;;;44.83;12.35;;;0.00;99.90;;;;;;4984729;28;20111;-94
2022/01/10 03:10:05;;;;;;;38.83;12.18;;;0.00;99.90;;;;;;4984794;28;20119;-95
2022/01/10 03:12:31;;;;;;;48.25;14.02;;;0.00;99.90;;;;;;4984657;28;20388;-93
2022/01/10 03:14:58;;;;;;;48.13;14.23;;;0.10;99.90;;;;;;4984653;28;20060;-94
2022/01/10 03:17:25;;;;;;;46.72;12.88;;;0.00;99.90;;;;;;5000778;28;20197;-94
2022/01/10 03:19:51;;;;;;;41.90;12.50;;;0.00;99.90;;;;;;4984896;28;20054;-94
2022/01/10 03:22:16;;;;;;;40.08;12.95;;;0.40;99.90;;;;;;4984038;28;20141;-93
2022/01/10 03:24:42;;;;;;;33.35;11.63;;;0.00;99.90;;;;;;4984216;28;20057;-93
2022/01/10 03:27:08;;;;;;;61.20;13.73;;;0.00;99.90;;;;;;4983814;28;20045;-94
2022/01/10 03:29:34;;;;;;;52.65;13.10;;;0.10;99.90;;;;;;5000277;28;20456;-94
2022/01/10 03:32:01;;;;;;;51.92;12.52;;;0.00;99.90;;;;;;4983723;28;20057;-93
2022/01/10 03:34:28;;;;;;;42.40;11.85;;;0.00;99.90;;;;;;4999816;28;20133;-93
2022/01/10 03:36:54;;;;;;;48.05;12.93;;;0.00;99.90;;;;;;4983456;28;20065;-94
2022/01/10 03:39:20;;;;;;;44.42;12.48;;;0.20;99.90;;;;;;4983612;28;20156;-93
2022/01/10 03:41:46;;;;;;;40.30;12.25;;;0.00;99.90;;;;;;4999993;28;20061;-93
2022/01/10 03:44:12;;;;;;;41.63;11.88;;;-0.20;99.90;;;;;;4983938;28;20113;-95
2022/01/10 03:46:38;;;;;;;37.78;12.52;;;0.00;99.90;;;;;;4983398;28;20093;-94
2022/01/10 03:49:05;;;;;;;40.83;12.13;;;0.10;99.90;;;;;;4983256;28;20125;-94
2022/01/10 03:51:30;;;;;;;34.80;12.10;;;-0.10;99.90;;;;;;4982919;28;20050;-94
2022/01/10 03:53:56;;;;;;;45.70;13.02;;;-0.10;99.90;;;;;;4983296;28;20076;-95
2022/01/10 03:56:24;;;;;;;43.90;12.02;;;0.30;99.90;;;;;;4983332;28;20100;-93
2022/01/10 03:58:50;;;;;;;46.00;12.88;;;0.30;99.90;;;;;;4983030;28;20112;-93
2022/01/10 04:01:16;;;;;;;52.17;12.77;;;-0.10;99.90;;;;;;4998986;28;20133;-94
2022/01/10 04:03:41;;;;;;;41.22;12.20;;;-0.10;99.90;;;;;;4983085;28;20050;-94
2022/01/10 04:06:08;;;;;;;40.90;13.55;;;-0.10;99.90;;;;;;4983114;28;20123;-93
2022/01/10 04:08:34;;;;;;;44.67;13.27;;;0.00;99.90;;;;;;4982994;28;20055;-95
2022/01/10 04:11:00;;;;;;;39.47;12.18;;;-0.20;99.90;;;;;;4982828;28;20054;-93
2022/01/10 04:13:26;;;;;;;50.70;13.07;;;-0.10;99.90;;;;;;4999373;28;20129;-94
2022/01/10 04:15:52;;;;;;;51.85;13.10;;;-0.20;99.90;;;;;;4982797;28;20141;-94
2022/01/10 04:18:20;;;;;;;47.85;13.32;;;-0.20;99.90;;;;;;4998696;28;20050;-93
2022/01/10 04:20:46;;;;;;;50.03;12.90;;;-0.20;99.90;;;;;;4982739;28;20089;-94
2022/01/10 04:23:14;;;;;;;45.88;13.32;;;-0.30;99.90;;;;;;4982948;28;20498;-95
2022/01/10 04:25:40;;;;;;;53.95;12.80;;;-0.20;99.90;;;;;;4982344;28;20058;-94
2022/01/10 04:28:06;;;;;;;38.63;12.27;;;-0.10;99.90;;;;;;4982981;28;20056;-95
2022/01/10 04:30:32;;;;;;;46.63;12.60;;;-0.20;99.90;;;;;;4982274;28;20494;-93
2022/01/10 04:33:00;;;;;;;43.53;12.77;;;-0.20;99.90;;;;;;4978732;28;20085;-93
2022/01/10 04:35:26;;;;;;;38.08;13.23;;;-0.20;99.90;;;;;;4995928;28;20488;-94
2022/01/10 04:37:52;;;;;;;50.13;12.98;;;-0.40;99.90;;;;;;4979635;28;20053;-94
2022/01/10 04:40:18;;;;;;;46.03;13.48;;;-0.40;99.90;;;;;;4979688;28;20058;-94
2022/01/10 04:42:44;;;;;;;36.72;12.77;;;-0.40;99.90;;;;;;4979228;28;20088;-94
2022/01/10 04:45:10;;;;;;;41.67;12.95;;;-0.40;99.90;;;;;;4979252;28;20098;-95
2022/01/10 04:47:36;;;;;;;41.05;13.63;;;-0.80;99.90;;;;;;4979433;28;20495;-95
2022/01/10 04:52:48;;;;;;;37.28;13.20;;;-0.60;99.90;;;;;;4995196;28;20050;-94
2022/01/10 04:55:14;;;;;;;36.47;12.27;;;-0.70;99.90;;;;;;4979265;28;20112;-94
2022/01/10 04:57:41;;;;;;;38.50;13.18;;;-0.50;99.90;;;;;;4995089;28;20049;-94
2022/01/10 05:00:12;;;;;;;37.03;13.13;;;-0.30;99.90;;;;;;4979065;28;20491;-93
2022/01/10 05:02:41;;;;;;;42.10;13.07;;;-0.50;99.90;;;;;;4978097;28;20054;-94
2022/01/10 05:05:07;;;;;;;47.58;13.93;;;-0.50;99.90;;;;;;4978853;28;20058;-94
2022/01/10 05:07:33;;;;;;;44.20;13.38;;;-0.60;99.90;;;;;;4978990;28;20064;-93
2022/01/10 05:09:59;;;;;;;37.92;12.63;;;-0.70;99.90;;;;;;4978974;28;20054;-94
2022/01/10 05:12:27;;;;;;;52.08;14.02;;;-0.60;99.90;;;;;;4978928;28;20050;-95
2022/01/10 05:14:53;;;;;;;40.65;14.23;;;-0.80;99.90;;;;;;4978769;28;20085;-93
2022/01/10 05:17:21;;;;;;;36.70;13.50;;;-0.80;99.90;;;;;;4978778;28;20054;-94
2022/01/10 05:19:47;;;;;;;38.88;13.73;;;-0.80;99.90;;;;;;4978660;28;20084;-95
2022/01/10 05:22:12;;;;;;;41.80;12.82;;;-1.10;99.90;;;;;;4978854;28;20050;-95
2022/01/10 05:24:38;;;;;;;36.95;12.05;;;-1.00;99.90;;;;;;4978824;28;20149;-95
2022/01/10 05:27:04;;;;;;;36.90;12.98;;;-0.90;99.90;;;;;;4978566;28;20058;-94
2022/01/10 05:29:33;;;;;;;37.97;13.25;;;-1.10;99.90;;;;;;4978594;28;20093;-94
2022/01/10 05:31:59;;;;;;;37.95;13.07;;;-0.90;99.90;;;;;;4978335;28;20060;-94
2022/01/10 05:34:25;;;;;;;47.13;13.13;;;-1.10;99.90;;;;;;4978075;28;20054;-94
2022/01/10 05:36:51;;;;;;;36.35;12.48;;;-1.20;99.90;;;;;;4978416;28;20106;-94
2022/01/10 05:39:17;;;;;;;39.53;13.23;;;-1.00;99.90;;;;;;4978505;28;20061;-95
2022/01/10 05:41:43;;;;;;;48.55;14.98;;;-1.20;99.90;;;;;;4978653;28;20054;-95
2022/01/10 05:44:10;;;;;;;36.10;14.15;;;-1.10;99.90;;;;;;4978659;28;20057;-94
2022/01/10 05:46:37;;;;;;;37.45;12.60;;;-1.20;99.90;;;;;;4978690;28;20078;-95
2022/01/10 05:49:04;;;;;;;39.17;13.55;;;-1.20;99.90;;;;;;4978020;28;20058;-94
2022/01/10 05:51:34;;;;;;;37.85;13.38;;;-1.40;99.90;;;;;;4978112;28;20503;-94
2022/01/10 05:54:06;;;;;;;36.30;12.63;;;-1.30;99.90;;;;;;4978117;28;20575;-95
2022/01/10 05:56:33;;;;;;;32.85;12.93;;;-1.00;99.90;;;;;;4978239;28;20054;-94
2022/01/10 05:59:00;;;;;;;36.50;11.88;;;-1.20;99.90;;;;;;4977662;28;20105;-94
2022/01/10 06:01:26;;;;;;;40.50;14.90;;;-1.60;99.90;;;;;;4994265;28;20058;-94
2022/01/10 06:04:30;;;;;;;36.45;14.32;;;-1.50;99.90;;;;;;4978009;28;20054;-94
2022/01/10 06:06:56;;;;;;;30.27;13.20;;;-1.60;99.90;;;;;;4977838;28;20591;-94
2022/01/10 06:09:22;;;;;;;43.15;14.05;;;-1.50;99.90;;;;;;4978328;28;20141;-95
2022/01/10 06:11:48;;;;;;;32.45;12.27;;;-1.50;99.90;;;;;;4978172;28;20057;-94
2022/01/10 06:14:13;;;;;;;35.63;13.65;;;-1.40;99.90;;;;;;4977586;28;20429;-95
2022/01/10 06:16:39;;;;;;;34.42;13.35;;;-1.40;99.90;;;;;;4978029;28;20133;-94
2022/01/10 06:19:05;;;;;;;32.25;14.10;;;-1.60;99.90;;;;;;4977903;28;20066;-94
2022/01/10 06:21:31;;;;;;;31.38;13.45;;;-1.60;99.90;;;;;;4978252;28;20051;-94
2022/01/10 06:23:57;;;;;;;43.70;15.25;;;-1.30;99.90;;;;;;4978077;28;20058;-93
2022/01/10 06:26:23;;;;;;;39.28;15.10;;;-1.50;99.90;;;;;;4978423;28;20392;-94
2022/01/10 06:28:48;;;;;;;28.48;13.32;;;-1.70;99.90;;;;;;4978373;28;20121;-94
2022/01/10 06:31:14;;;;;;;40.70;13.65;;;-1.50;99.90;;;;;;4977979;28;20058;-93
2022/01/10 06:37:49;;;;;;;30.85;13.88;;;-1.50;99.90;;;;;;4994266;28;20073;-93
2022/01/10 06:40:15;;;;;;;33.58;13.27;;;-1.30;99.90;;;;;;4977667;28;20064;-94
2022/01/10 06:42:41;;;;;;;34.38;13.50;;;-1.60;99.90;;;;;;4977908;28;20042;-93
2022/01/10 06:45:08;;;;;;;28.98;13.60;;;-1.50;99.90;;;;;;4977939;28;20073;-94
2022/01/10 06:47:34;;;;;;;36.00;14.07;;;-1.60;99.90;;;;;;4977836;28;20050;-93
2022/01/10 06:49:59;;;;;;;37.92;14.70;;;-1.30;99.90;;;;;;4977917;28;20065;-93
2022/01/10 06:52:25;;;;;;;37.92;14.32;;;-1.70;99.90;;;;;;4993779;28;20194;-93
2022/01/10 06:54:51;;;;;;;33.40;15.02;;;-1.10;99.90;;;;;;4977847;28;20141;-93
2022/01/10 06:57:18;;;;;;;33.38;14.18;;;-1.80;99.90;;;;;;4977381;28;20057;-94
2022/01/10 06:59:44;;;;;;;37.72;15.07;;;-1.70;99.90;;;;;;4977821;28;20635;-93
2022/01/10 07:02:09;;;;;;;37.00;14.55;;;-1.50;99.90;;;;;;4977469;28;20153;-94
2022/01/10 07:08:16;;;;;;;30.30;13.43;;;-1.70;99.90;;;;;;4994648;28;20499;-93
2022/01/10 07:10:42;;;;;;;32.13;13.90;;;-1.70;99.90;;;;;;4978115;28;20294;-93
2022/01/10 07:13:08;;;;;;;33.05;13.25;;;-1.70;99.90;;;;;;4977854;28;20058;-93
2022/01/10 07:15:36;;;;;;;40.13;13.43;;;-1.70;99.90;;;;;;4977276;28;20054;-93
2022/01/10 07:18:02;;;;;;;32.55;14.18;;;-1.70;99.90;;;;;;4977695;28;20050;-93
2022/01/10 07:20:28;;;;;;;28.70;14.10;;;-1.50;99.90;;;;;;4978813;28;20055;-94
2022/01/10 07:22:54;;;;;;;31.58;14.50;;;-1.40;99.90;;;;;;4979322;28;20200;-93
2022/01/10 07:25:19;;;;;;;34.22;14.30;;;-1.90;99.90;;;;;;4997371;28;20054;-94
2022/01/10 07:27:45;;;;;;;33.53;14.48;;;-1.60;99.90;;;;;;4983570;28;20209;-93
2022/01/10 07:30:11;;;;;;;32.80;14.63;;;-1.40;99.90;;;;;;4983040;28;20046;-93
2022/01/10 07:32:37;;;;;;;38.03;16.00;;;-1.20;99.90;;;;;;4982081;28;20057;-91
2022/01/10 07:35:03;;;;;;;333.48;28.75;;;-1.60;99.90;;;;;;4983121;28;20110;-95
2022/01/10 07:37:28;;;;;;;31.77;14.98;;;-1.60;99.90;;;;;;4982763;28;20475;-93
2022/01/10 07:39:54;;;;;;;36.33;16.45;;;-1.60;99.90;;;;;;4983221;28;20132;-93
2022/01/10 07:42:20;;;;;;;31.20;13.95;;;-1.40;99.90;;;;;;4982866;28;20050;-95
2022/01/10 07:44:46;;;;;;;685.60;47.35;;;-1.60;99.90;;;;;;4999314;28;20050;-93
2022/01/10 07:47:11;;;;;;;31.08;15.88;;;-1.70;99.90;;;;;;4982511;28;20042;-94
2022/01/10 07:49:37;;;;;;;31.02;15.57;;;-1.40;99.90;;;;;;4983331;28;20141;-93
2022/01/10 07:52:03;;;;;;;28.65;16.02;;;-1.40;99.90;;;;;;4999035;28;20385;-93
2022/01/10 07:54:29;;;;;;;29.60;16.70;;;-1.50;99.90;;;;;;4983166;28;20085;-92
2022/01/10 07:56:55;;;;;;;28.52;15.40;;;-1.60;99.90;;;;;;4982891;28;20051;-93
2022/01/10 07:59:22;;;;;;;35.83;17.45;;;-1.40;99.90;;;;;;4998858;28;20519;-93
2022/01/10 08:01:48;;;;;;;32.28;17.73;;;-1.50;99.90;;;;;;4998670;28;20090;-92
2022/01/10 08:08:22;;;;;;;34.28;17.48;;;-1.50;99.90;;;;;;4999577;28;20506;-92
2022/01/10 08:10:51;;;;;;;33.22;16.85;;;-1.50;99.90;;;;;;4982668;28;20047;-93
2022/01/10 08:13:17;;;;;;;34.55;19.00;;;-1.40;99.90;;;;;;4982585;28;20150;-92
2022/01/10 08:15:43;;;;;;;37.92;18.70;;;-1.50;99.90;;;;;;4998606;28;20073;-93
2022/01/10 08:18:10;;;;;;;38.72;18.75;;;-1.00;99.90;;;;;;4982087;28;20046;-94
2022/01/10 08:20:36;;;;;;;43.33;22.23;;;-1.20;99.90;;;;;;4982448;28;20116;-92
2022/01/10 08:23:02;;;;;;;44.50;20.90;;;-1.20;99.90;;;;;;4981683;28;20054;-92
2022/01/10 08:25:28;;;;;;;40.17;20.35;;;-1.20;99.90;;;;;;4982834;28;20061;-92
2022/01/10 08:27:54;;;;;;;47.05;22.63;;;-0.90;99.90;;;;;;4981434;28;20054;-93
2022/01/10 08:30:20;;;;;;;51.42;24.42;;;-1.10;99.90;;;;;;4982283;28;20492;-92
2022/01/10 08:32:50;;;;;;;56.67;24.00;;;-0.90;99.90;;;;;;4985161;28;20417;-92
2022/01/10 08:35:18;;;;;;;58.15;25.80;;;-0.90;99.90;;;;;;5001808;28;20054;-93
2022/01/10 08:37:45;;;;;;;66.55;28.35;;;-0.90;99.90;;;;;;4984168;28;20045;-94
2022/01/10 08:40:11;;;;;;;72.90;27.75;;;-0.50;99.90;;;;;;4984846;28;20050;-92
2022/01/10 08:42:37;;;;;;;65.60;27.63;;;-0.60;99.90;;;;;;4985606;28;20053;-91
2022/01/10 08:45:05;;;;;;;71.75;30.13;;;-0.40;99.90;;;;;;4985143;28;20057;-92
2022/01/10 08:47:30;;;;;;;109.82;31.27;;;-0.20;99.90;;;;;;4985414;28;20117;-92
2022/01/10 08:53:21;;;;;;;71.13;27.15;;;0.00;99.90;;;;;;5000895;28;20081;-93
2022/01/10 08:55:50;;;;;;;76.38;28.38;;;0.40;99.90;;;;;;4985278;28;20530;-93
2022/01/10 08:58:16;;;;;;;83.93;27.95;;;0.40;99.90;;;;;;4984601;28;20137;-94
2022/01/10 09:00:42;;;;;;;77.97;27.85;;;0.40;99.90;;;;;;4984561;28;20156;-94
2022/01/10 09:03:09;;;;;;;63.83;25.02;;;0.50;99.90;;;;;;4985424;28;20506;-94
2022/01/10 09:05:35;;;;;;;62.90;23.63;;;0.50;99.90;;;;;;4983218;28;20050;-94
2022/01/10 09:08:03;;;;;;;56.97;22.35;;;0.50;99.90;;;;;;4982525;28;20145;-95
2022/01/10 09:10:29;;;;;;;49.45;21.48;;;0.50;99.90;;;;;;4998712;28;20077;-94
2022/01/10 09:12:55;;;;;;;40.10;19.08;;;0.80;99.90;;;;;;4998116;28;20042;-94
2022/01/10 09:15:21;;;;;;;121.03;21.20;;;1.00;99.90;;;;;;4998188;28;20462;-94
2022/01/10 09:17:47;;;;;;;38.00;17.63;;;1.30;99.90;;;;;;4981729;28;20053;-93
2022/01/10 09:20:13;;;;;;;26.20;16.05;;;0.90;99.90;;;;;;4981743;28;20065;-94
2022/01/10 09:22:39;;;;;;;38.80;16.75;;;1.30;99.90;;;;;;4997669;28;20060;-95
2022/01/10 09:25:05;;;;;;;38.00;16.27;;;1.50;99.90;;;;;;4981403;28;20127;-94
2022/01/10 09:27:31;;;;;;;36.28;16.98;;;1.40;99.90;;;;;;4981498;28;20058;-94
2022/01/10 09:29:57;;;;;;;34.00;16.75;;;1.50;99.90;;;;;;4981284;28;20134;-94
2022/01/10 09:32:23;;;;;;;33.72;16.98;;;1.50;99.90;;;;;;4978087;28;20129;-94
2022/01/10 09:34:49;;;;;;;32.28;16.85;;;1.60;99.90;;;;;;4978156;28;20058;-95
2022/01/10 09:37:14;;;;;;;39.42;16.27;;;2.00;99.90;;;;;;4994127;28;20050;-95
2022/01/10 09:39:40;;;;;;;27.45;14.68;;;2.30;99.90;;;;;;4994210;28;20054;-94
2022/01/10 09:42:06;;;;;;;32.78;15.05;;;2.80;99.90;;;;;;4978014;28;20053;-94
2022/01/10 09:44:34;;;;;;;29.60;15.18;;;3.20;99.90;;;;;;4977793;28;20051;-94
2022/01/10 09:47:00;;;;;;;24.00;13.63;;;3.70;99.90;;;;;;4977655;28;20389;-95
2022/01/10 09:49:26;;;;;;;35.92;15.23;;;3.90;99.90;;;;;;4977581;28;20062;-96
2022/01/10 09:51:52;;;;;;;26.48;14.23;;;4.20;99.90;;;;;;4978009;28;20518;-94
2022/01/10 09:54:18;;;;;;;38.75;14.77;;;4.50;99.90;;;;;;4994006;28;20081;-94
2022/01/10 09:56:47;;;;;;;30.10;14.00;;;4.80;99.90;;;;;;4994028;28;20140;-96
2022/01/10 09:59:14;;;;;;;29.90;14.38;;;5.30;99.90;;;;;;4977488;28;20126;-94
2022/01/10 10:01:40;;;;;;;28.35;14.50;;;5.70;99.90;;;;;;4978118;28;20492;-94
2022/01/10 10:04:06;;;;;;;43.83;14.80;;;6.30;99.90;;;;;;4993866;28;20046;-95
2022/01/10 10:06:33;;;;;;;53.15;16.50;;;6.80;99.90;;;;;;4977674;28;20132;-95
2022/01/10 10:09:01;;;;;;;23.52;15.15;;;7.40;99.90;;;;;;4977455;28;20058;-95
2022/01/10 10:11:50;;;;;;;27.45;13.63;;;7.80;99.90;;;;;;4977534;28;20061;-95
2022/01/10 10:14:22;;;;;;;26.00;14.18;;;8.00;99.90;;;;;;4993151;28;20054;-95
2022/01/10 10:16:50;;;;;;;27.45;14.63;;;8.10;99.90;;;;;;4977303;28;20051;-95
2022/01/10 10:19:19;;;;;;;24.15;14.63;;;8.40;99.90;;;;;;4977150;28;20152;-95
2022/01/10 10:21:45;;;;;;;27.67;14.90;;;8.70;99.90;;;;;;4977477;28;20062;-94
2022/01/10 10:24:11;;;;;;;30.80;15.55;;;8.80;99.90;;;;;;4977681;28;20058;-95
2022/01/10 10:26:37;;;;;;;27.05;14.68;;;8.60;99.90;;;;;;4993342;28;20110;-96
2022/01/10 10:29:03;;;;;;;30.77;14.70;;;8.60;99.90;;;;;;4977446;28;20156;-94
2022/01/10 10:31:35;;;;;;;40.78;14.73;;;8.50;99.90;;;;;;4994285;28;20050;-94
2022/01/10 10:34:04;;;;;;;38.60;16.10;;;8.70;99.90;;;;;;4980232;28;20082;-94
2022/01/10 10:36:31;;;;;;;44.03;15.93;;;8.70;99.90;;;;;;4996493;28;20064;-95
2022/01/10 10:38:58;;;;;;;32.55;13.88;;;8.70;99.90;;;;;;4996184;28;20136;-94
2022/01/10 10:41:25;;;;;;;25.67;14.45;;;8.80;99.90;;;;;;4996486;28;20045;-93
2022/01/10 10:43:51;;;;;;;30.00;14.63;;;8.90;99.90;;;;;;4980911;28;20097;-94
2022/01/10 10:46:18;;;;;;;19.52;12.60;;;8.90;99.90;;;;;;4979939;28;20058;-94
2022/01/10 10:48:59;;;;;;;21.45;12.70;;;9.40;99.90;;;;;;4996681;28;20058;-94
2022/01/10 10:51:30;;;;;;;18.70;12.38;;;9.30;99.90;;;;;;4980435;28;20058;-94
2022/01/10 10:54:09;;;;;;;26.65;13.13;;;9.40;99.90;;;;;;4996532;28;20484;-96
2022/01/10 10:56:38;;;;;;;20.35;12.38;;;9.40;99.90;;;;;;4980381;28;20089;-95
2022/01/10 10:59:06;;;;;;;22.60;13.73;;;9.40;99.90;;;;;;4980202;28;20058;-95
2022/01/10 11:01:32;;;;;;;21.13;13.80;;;9.80;99.90;;;;;;4983351;28;20065;-95
2022/01/10 11:04:22;;;;;;;23.05;12.88;;;9.70;99.90;;;;;;4984427;28;20050;-95
2022/01/10 11:06:49;;;;;;;22.52;13.63;;;9.90;99.90;;;;;;4983958;28;20058;-95
2022/01/10 11:09:16;;;;;;;24.13;13.32;;;10.00;99.90;;;;;;4984485;28;20089;-95
2022/01/10 11:11:43;;;;;;;27.52;14.05;;;10.20;99.90;;;;;;4983879;28;20050;-95
2022/01/10 11:14:13;;;;;;;22.55;12.90;;;10.00;99.90;;;;;;4984161;28;20062;-94
2022/01/10 11:16:41;;;;;;;22.90;12.95;;;10.40;99.90;;;;;;5000422;28;20050;-94
2022/01/10 11:19:46;;;;;;;21.45;12.80;;;10.60;99.90;;;;;;4984048;28;20049;-94
2022/01/10 11:22:12;;;;;;;19.02;12.50;;;10.60;99.90;;;;;;4984402;28;20074;-93
2022/01/10 11:24:41;;;;;;;20.70;12.43;;;10.20;99.90;;;;;;4984469;28;20049;-95
2022/01/10 11:27:43;;;;;;;22.58;12.80;;;9.90;99.90;;;;;;4984644;28;20062;-93
2022/01/10 11:30:36;;;;;;;23.25;13.35;;;9.70;99.90;;;;;;4903508;29;20119;-94
2022/01/10 11:33:07;;;;;;;22.85;12.18;;;9.50;99.90;;;;;;4918625;29;20064;-95
2022/01/10 11:35:56;;;;;;;23.95;12.65;;;9.70;99.90;;;;;;4903050;29;20227;-93
2022/01/10 11:38:30;;;;;;;18.70;11.80;;;9.90;99.90;;;;;;4828899;29;20095;-94
2022/01/10 11:41:07;;;;;;;23.98;12.13;;;9.90;99.90;;;;;;4814097;29;20413;-94
2022/01/10 11:43:35;;;;;;;21.63;12.30;;;10.00;99.90;;;;;;4813990;29;20058;-93
2022/01/10 11:46:15;;;;;;;22.42;12.82;;;10.00;99.90;;;;;;4829060;29;20058;-94
2022/01/10 11:52:16;;;;;;;27.45;13.00;;;9.50;99.90;;;;;;4844435;29;20541;-93
2022/01/10 11:54:42;;;;;;;24.05;12.57;;;9.30;99.90;;;;;;4828811;29;20160;-94
2022/01/10 11:57:11;;;;;;;19.67;12.45;;;9.00;99.90;;;;;;4828489;29;20065;-93
2022/01/10 11:59:52;;;;;;;20.75;12.27;;;9.20;99.90;;;;;;4828917;29;20058;-92
2022/01/10 12:02:23;;;;;;;;;;;9.20;99.90;;;;;;4829869;29;20057;-92
2022/01/10 12:08:29;;;;;;;21.58;14.05;;;7.90;99.90;;;;;;4899330;29;20100;-92
2022/01/10 12:10:56;;;;;;;27.70;14.45;;;7.40;99.90;;;;;;4883646;29;20060;-92
2022/01/10 12:13:26;;;;;;;24.27;14.20;;;7.50;99.90;;;;;;4883794;29;20056;-92
2022/01/10 12:16:05;;;;;;;24.70;13.85;;;7.50;99.90;;;;;;4965163;28;20058;-91
2022/01/10 12:18:30;;;;;;;26.25;13.55;;;7.60;99.90;;;;;;4983135;28;20403;-92
2022/01/10 12:24:40;;;;;;;19.95;14.07;;;8.00;99.90;;;;;;5016325;28;20037;-92
2022/01/10 12:27:08;;;;;;;20.70;13.65;;;8.10;99.90;;;;;;4982894;28;20062;-93
2022/01/10 12:29:36;;;;;;;26.58;14.05;;;8.00;99.90;;;;;;4982823;28;20065;-92
2022/01/10 12:32:04;;;;;;;24.60;14.50;;;7.90;99.90;;;;;;4995545;28;20086;-92
2022/01/10 12:35:09;;;;;;;21.08;14.43;;;7.70;99.90;;;;;;4995864;28;20052;-92
2022/01/10 12:37:36;;;;;;;23.83;14.95;;;7.70;99.90;;;;;;4979404;28;20050;-93
2022/01/10 12:40:03;;;;;;;30.23;15.48;;;7.60;99.90;;;;;;4979051;28;20058;-91
2022/01/10 12:42:29;;;;;;;26.85;15.73;;;7.40;99.90;;;;;;4995361;28;20145;-92
2022/01/10 12:44:54;;;;;;;21.50;15.20;;;7.20;99.90;;;;;;4978521;28;20494;-92
2022/01/10 12:47:20;;;;;;;25.80;15.32;;;7.10;99.90;;;;;;4978937;28;20125;-91
2022/01/10 12:49:47;;;;;;;23.25;15.48;;;7.30;99.90;;;;;;4995116;28;20082;-92
2022/01/10 12:52:17;;;;;;;21.98;14.50;;;7.30;99.90;;;;;;4995277;28;20124;-92
2022/01/10 12:54:43;;;;;;;27.00;15.52;;;7.50;99.90;;;;;;4994941;28;20389;-91
2022/01/10 12:57:09;;;;;;;23.98;15.30;;;7.30;99.90;;;;;;4978876;28;20470;-92
2022/01/10 12:59:37;;;;;;;30.90;15.73;;;7.20;99.90;;;;;;4979079;28;20054;-91
2022/01/10 13:02:06;;;;;;;24.92;15.88;;;7.10;99.90;;;;;;4979030;28;20065;-91
2022/01/10 13:08:13;;;;;;;26.98;15.77;;;6.60;99.90;;;;;;4995523;28;20162;-91
2022/01/10 13:10:39;;;;;;;25.02;15.63;;;6.60;99.90;;;;;;4995039;28;20042;-91
2022/01/10 13:13:08;;;;;;;23.48;15.43;;;7.00;99.90;;;;;;4978359;28;20408;-92
2022/01/10 13:15:38;;;;;;;24.25;15.25;;;7.20;99.90;;;;;;4978805;28;20124;-91
2022/01/10 13:18:05;;;;;;;20.98;14.13;;;7.50;99.90;;;;;;4978549;28;20047;-92
2022/01/10 13:24:13;;;;;;;25.00;15.85;;;7.90;99.90;;;;;;4994600;28;20041;-92
2022/01/10 13:27:05;;;;;;;24.45;15.45;;;8.10;99.90;;;;;;4978020;28;20416;-91
2022/01/10 13:29:41;;;;;;;25.27;15.27;;;8.10;99.90;;;;;;4994760;28;20058;-92
2022/01/10 13:32:30;;;;;;;23.65;15.23;;;8.20;99.90;;;;;;4994013;28;20116;-92
2022/01/10 13:35:06;;;;;;;23.73;15.57;;;8.10;99.90;;;;;;4994325;28;20065;-92
2022/01/10 13:37:43;;;;;;;27.55;15.25;;;7.80;99.90;;;;;;4977787;28;20137;-92
2022/01/10 13:40:13;;;;;;;23.23;15.82;;;8.00;99.90;;;;;;4977801;28;20149;-92
2022/01/10 13:43:06;;;;;;;25.25;16.00;;;7.90;99.90;;;;;;4993657;28;20050;-91
2022/01/10 13:45:54;;;;;;;27.77;15.48;;;7.90;99.90;;;;;;4993527;28;20514;-92
2022/01/10 13:48:25;;;;;;;24.27;16.10;;;7.90;99.90;;;;;;4978300;28;20509;-92
2022/01/10 13:50:52;;;;;;;23.77;15.98;;;7.70;99.90;;;;;;4977630;28;20097;-91
2022/01/10 13:53:29;;;;;;;23.02;15.85;;;7.30;99.90;;;;;;4977545;28;20117;-92
2022/01/10 13:56:16;;;;;;;26.80;18.23;;;7.10;99.90;;;;;;4993565;28;20050;-92
2022/01/10 13:58:44;;;;;;;27.48;18.85;;;6.90;99.90;;;;;;4976935;28;20403;-92
2022/01/10 14:01:13;;;;;;;29.48;17.88;;;6.80;99.90;;;;;;4977626;28;20058;-92
2022/01/10 14:03:39;;;;;;;24.92;17.65;;;7.00;99.90;;;;;;4993605;28;20057;-92
2022/01/10 14:06:10;;;;;;;28.23;18.27;;;6.80;99.90;;;;;;4976869;28;20542;-91
2022/01/10 14:08:38;;;;;;;23.20;17.55;;;7.00;99.90;;;;;;4993820;28;20061;-91